createdAt,value
2018-10-19T00:03:24.169Z,30
2018-10-19T00:09:19.168Z,32.36
2018-10-19T00:15:14.274Z,34.95
2018-10-19T00:21:09.276Z,36.83
2018-10-19T00:27:04.264Z,34.82
2018-10-19T00:32:59.238Z,30.17
2018-10-19T00:38:54.228Z,32.11
2018-10-19T00:44:49.228Z,24.92
2018-10-19T00:50:44.195Z,26.14
2018-10-19T00:56:39.223Z,24.14
2018-10-19T01:02:34.180Z,26.31
2018-10-19T01:08:29.200Z,28.29
2018-10-19T01:14:24.187Z,27.67
2018-10-19T01:20:19.215Z,28.4
2018-10-19T01:26:14.201Z,31.19
2018-10-19T01:32:09.255Z,25.09
2018-10-19T01:38:04.263Z,25.16
2018-10-19T01:43:59.218Z,23.11
2018-10-19T01:49:54.223Z,22.76
2018-10-19T01:55:49.219Z,29.85
2018-10-19T02:01:44.229Z,25.64
2018-10-19T02:07:39.228Z,23.37
2018-10-19T02:13:34.241Z,32.18
2018-10-19T02:19:29.238Z,35.57
2018-10-19T02:25:24.255Z,29.8
2018-10-19T02:31:19.270Z,24.96
2018-10-19T02:37:14.275Z,33.6
2018-10-19T02:43:09.265Z,31.87
2018-10-19T02:49:04.265Z,28.81
2018-10-19T02:54:59.258Z,27.15
2018-10-19T03:00:54.308Z,36.35
2018-10-19T03:06:49.274Z,24.58
2018-10-19T03:12:44.291Z,29.13
2018-10-19T03:18:39.283Z,29.21
2018-10-19T03:24:34.339Z,29.68
2018-10-19T03:30:29.315Z,27.93
2018-10-19T03:36:24.292Z,27.37
2018-10-19T03:42:19.292Z,28.06
2018-10-19T03:48:14.311Z,30.58
2018-10-19T03:54:09.298Z,24.94
2018-10-19T04:00:04.293Z,26.51
2018-10-19T04:05:59.324Z,29.57
2018-10-19T04:11:54.326Z,26.18
2018-10-19T04:17:49.323Z,24.89
2018-10-19T04:23:44.329Z,29.77
2018-10-19T04:29:39.309Z,28.43
2018-10-19T04:35:34.319Z,27.32
2018-10-19T04:41:29.386Z,25.7
2018-10-19T04:47:24.382Z,20.84
2018-10-19T04:53:19.440Z,24.55
2018-10-19T04:59:14.345Z,26.79
2018-10-19T05:05:09.356Z,21.75
2018-10-19T05:11:04.391Z,24.66
2018-10-19T05:16:59.404Z,21.53
2018-10-19T05:22:54.384Z,22.34
2018-10-19T05:28:49.387Z,24.44
2018-10-19T05:34:44.371Z,21.18
2018-10-19T05:40:39.357Z,25.9
2018-10-19T05:46:34.368Z,28.28
2018-10-19T05:52:29.398Z,34.65
2018-10-19T05:58:24.364Z,47.19
2018-10-19T06:04:19.405Z,46.63
2018-10-19T06:10:14.394Z,39.51
2018-10-19T06:16:09.379Z,47.64
2018-10-19T06:22:04.375Z,45.03
2018-10-19T06:27:59.395Z,42.96
2018-10-19T06:33:54.384Z,43.56
2018-10-19T06:39:49.459Z,41.85
2018-10-19T06:45:44.410Z,36.31
2018-10-19T06:51:39.401Z,36.54
2018-10-19T06:57:34.454Z,33.05
2018-10-19T07:03:29.393Z,36.35
2018-10-19T07:09:24.435Z,37.69
2018-10-19T07:15:19.428Z,45.01
2018-10-19T07:21:14.426Z,36.91
2018-10-19T07:27:09.409Z,35.39
2018-10-19T07:33:04.454Z,34.74
2018-10-19T07:38:59.444Z,26.72
2018-10-19T07:44:54.453Z,26.86
2018-10-19T07:50:49.452Z,28.51
2018-10-19T07:56:44.448Z,27.1
2018-10-19T08:02:39.437Z,26.26
2018-10-19T08:08:34.459Z,20.93
2018-10-19T08:14:29.485Z,24.97
2018-10-19T08:20:24.458Z,26.68
2018-10-19T08:26:19.458Z,26.77
2018-10-19T08:32:14.513Z,27.82
2018-10-19T08:38:09.520Z,29.68
2018-10-19T08:44:04.484Z,25.62
2018-10-19T08:49:59.501Z,24.01
2018-10-19T08:55:54.472Z,25.71
2018-10-19T09:01:49.501Z,27.18
2018-10-19T09:07:44.503Z,26.75
2018-10-19T09:13:39.534Z,30.15
2018-10-19T09:19:34.479Z,73.26
2018-10-19T09:25:29.484Z,29.11
2018-10-19T09:31:24.523Z,27.65
2018-10-19T09:37:19.490Z,22.66
2018-10-19T09:43:14.581Z,26.48
2018-10-19T09:49:09.541Z,25.3
2018-10-19T09:55:04.551Z,23.21
2018-10-19T10:00:59.561Z,22.88
2018-10-19T10:06:54.558Z,23.3
2018-10-19T10:12:49.541Z,25.23
2018-10-19T10:18:44.539Z,18.91
2018-10-19T10:24:39.571Z,19.08
2018-10-19T10:30:34.580Z,22.51
2018-10-19T10:36:29.526Z,16.17
2018-10-19T10:42:24.548Z,13.05
2018-10-19T10:48:19.545Z,15.22
2018-10-19T10:54:14.605Z,18.48
2018-10-19T11:00:09.567Z,11.47
2018-10-19T11:06:04.551Z,12.18
2018-10-19T11:11:59.643Z,10.28
2018-10-19T11:17:54.587Z,13.73
2018-10-19T11:23:49.579Z,11.19
2018-10-19T11:29:44.568Z,13.49
2018-10-19T11:35:39.606Z,12.63
2018-10-19T11:41:34.572Z,19.83
2018-10-19T11:47:29.624Z,13.74
2018-10-19T11:53:24.614Z,12.08
2018-10-19T11:59:19.613Z,12.64
2018-10-19T12:05:14.590Z,10.56
2018-10-19T12:11:09.634Z,8.43
2018-10-19T12:17:04.734Z,8.51
2018-10-19T12:22:59.606Z,10.94
2018-10-19T12:28:54.595Z,11.97
2018-10-19T12:34:49.619Z,10.01
2018-10-19T12:40:44.610Z,9.97
2018-10-19T12:46:39.605Z,10.73
2018-10-19T12:52:34.646Z,10.54
2018-10-19T12:58:29.617Z,13.95
2018-10-19T13:04:24.660Z,8.91
2018-10-19T13:10:19.657Z,11
2018-10-19T13:16:14.715Z,10.88
2018-10-19T13:22:09.647Z,18.09
2018-10-19T13:28:04.705Z,7.84
2018-10-19T13:33:59.671Z,10.51
2018-10-19T13:39:54.695Z,11.53
2018-10-19T13:45:49.768Z,9.86
2018-10-19T13:51:44.648Z,11.59
2018-10-19T13:57:39.692Z,11.62
2018-10-19T14:03:34.668Z,16.06
2018-10-19T14:09:29.664Z,13.08
2018-10-19T14:15:24.771Z,10.38
2018-10-19T14:21:19.670Z,10.18
2018-10-19T14:27:14.861Z,10.06
2018-10-19T14:33:09.754Z,12.37
2018-10-19T14:39:04.766Z,11.01
2018-10-19T14:44:59.728Z,8.75
2018-10-19T14:50:54.743Z,13.12
2018-10-19T14:56:49.769Z,10.42
2018-10-19T15:02:44.733Z,7.88
2018-10-19T15:08:39.714Z,14.6
2018-10-19T15:14:34.716Z,30.28
2018-10-19T15:20:29.713Z,17.47
2018-10-19T15:26:24.839Z,11.87
2018-10-19T15:32:19.767Z,14.66
2018-10-19T15:38:14.744Z,12.24
2018-10-19T15:44:09.725Z,13.54
2018-10-19T15:50:04.733Z,14.42
2018-10-19T15:55:59.732Z,12.23
2018-10-19T16:01:54.746Z,20.51
2018-10-19T16:07:49.814Z,14.47
2018-10-19T16:13:44.748Z,19.34
2018-10-19T16:19:39.770Z,15.62
2018-10-19T16:25:34.768Z,17.03
2018-10-19T16:31:29.753Z,16.9
2018-10-19T16:37:24.757Z,15.63
2018-10-19T16:43:19.792Z,16.89
2018-10-19T16:49:14.779Z,26.87
2018-10-19T16:55:09.783Z,15.86
2018-10-19T17:01:04.809Z,20.07
2018-10-19T17:06:59.816Z,13.1
2018-10-19T17:12:54.866Z,21.47
2018-10-19T17:18:49.817Z,14.66
2018-10-19T17:24:44.799Z,16.37
2018-10-19T17:30:39.862Z,23.4
2018-10-19T17:36:34.846Z,18.89
2018-10-19T17:42:29.840Z,19.47
2018-10-19T17:48:24.830Z,18.24
2018-10-19T17:54:19.867Z,18.86
2018-10-19T18:00:14.927Z,16.61
2018-10-19T18:06:09.872Z,17.66
2018-10-19T18:12:04.826Z,22.33
2018-10-19T18:17:59.837Z,16.19
2018-10-19T18:23:54.835Z,23.42
2018-10-19T18:29:49.843Z,18.87
2018-10-19T18:35:44.856Z,19.34
2018-10-19T18:41:39.982Z,24.17
2018-10-19T18:47:34.839Z,19.57
2018-10-19T18:53:29.926Z,23.63
2018-10-19T18:59:24.946Z,18.49
2018-10-19T19:05:19.862Z,20.09
2018-10-19T19:11:14.963Z,22.51
2018-10-19T19:17:09.965Z,21.76
2018-10-19T19:23:04.925Z,27.4
2018-10-19T19:28:59.969Z,18.22
2018-10-19T19:34:54.903Z,22.29
2018-10-19T19:40:49.883Z,25
2018-10-19T19:46:44.894Z,24.44
2018-10-19T19:52:39.915Z,23.53
2018-10-19T19:58:34.907Z,26.38
2018-10-19T20:04:29.906Z,22.76
2018-10-19T20:10:24.906Z,30.83
2018-10-19T20:16:19.948Z,26.77
2018-10-19T20:22:14.957Z,21.64
2018-10-19T20:28:09.937Z,37.06
2018-10-19T20:34:04.935Z,36.59
2018-10-19T20:39:59.941Z,41.36
2018-10-19T20:45:54.925Z,37.77
2018-10-19T20:51:49.935Z,45.45
2018-10-19T20:57:44.938Z,46.81
2018-10-19T21:03:39.920Z,32.6
2018-10-19T21:09:34.953Z,42.71
2018-10-19T21:15:29.952Z,32.39
2018-10-19T21:21:25.003Z,25.6
2018-10-19T21:27:19.985Z,39.44
2018-10-19T21:33:14.966Z,24.85
2018-10-19T21:39:09.976Z,26.21
2018-10-19T21:45:04.981Z,35.35
2018-10-19T21:50:59.992Z,37.61
2018-10-19T21:56:54.977Z,26.18
2018-10-19T22:02:50.019Z,25.51
2018-10-19T22:08:44.994Z,29.48
2018-10-19T22:14:40.025Z,27.49
2018-10-19T22:20:34.980Z,32.66
2018-10-19T22:26:29.987Z,34.18
2018-10-19T22:32:25.051Z,27.08
2018-10-19T22:38:20.020Z,32.22
2018-10-19T22:44:14.985Z,27.5
2018-10-19T22:50:10.001Z,28.98
2018-10-19T22:56:05.001Z,23.54
2018-10-19T23:02:00.028Z,28.98
2018-10-19T23:07:55.020Z,28.15
2018-10-19T23:13:50.036Z,26.63
2018-10-19T23:19:45.013Z,27.28
2018-10-19T23:25:40.014Z,28.11
2018-10-19T23:31:35.217Z,22.17
2018-10-19T23:37:30.097Z,24.15
2018-10-19T23:43:25.063Z,28.96
2018-10-19T23:49:20.074Z,22.5
2018-10-19T23:55:15.090Z,27.56
